sensor_id;sensor_type;location;lat;lon;timestamp;temperature;humidity
35445;DHT22;21562;49.476;6.086;2022-07-11T00:00:12;22.60;93.40
35445;DHT22;21562;49.476;6.086;2022-07-11T00:02:39;22.50;93.20
35445;DHT22;21562;49.476;6.086;2022-07-11T00:05:06;21.90;93.90
35445;DHT22;21562;49.476;6.086;2022-07-11T00:07:32;21.80;94.30
35445;DHT22;21562;49.476;6.086;2022-07-11T00:09:58;21.80;94.30
35445;DHT22;21562;49.476;6.086;2022-07-11T00:12:24;21.90;94.40
35445;DHT22;21562;49.476;6.086;2022-07-11T00:14:55;22.10;94.10
35445;DHT22;21562;49.476;6.086;2022-07-11T00:17:21;22.20;94.20
35445;DHT22;21562;49.476;6.086;2022-07-11T00:19:48;22.30;94.00
35445;DHT22;21562;49.476;6.086;2022-07-11T00:22:14;22.30;94.00
35445;DHT22;21562;49.476;6.086;2022-07-11T00:24:40;22.40;94.00
35445;DHT22;21562;49.476;6.086;2022-07-11T00:27:06;22.40;93.90
35445;DHT22;21562;49.476;6.086;2022-07-11T00:29:32;22.40;94.00
35445;DHT22;21562;49.476;6.086;2022-07-11T00:31:58;22.50;94.00
35445;DHT22;21562;49.476;6.086;2022-07-11T00:34:24;22.60;93.70
35445;DHT22;21562;49.476;6.086;2022-07-11T00:36:51;22.60;93.70
35445;DHT22;21562;49.476;6.086;2022-07-11T00:39:17;22.70;93.70
35445;DHT22;21562;49.476;6.086;2022-07-11T00:41:42;22.70;93.70
35445;DHT22;21562;49.476;6.086;2022-07-11T00:44:08;22.80;93.70
35445;DHT22;21562;49.476;6.086;2022-07-11T00:46:34;22.70;93.60
35445;DHT22;21562;49.476;6.086;2022-07-11T00:49:00;22.70;93.60
35445;DHT22;21562;49.476;6.086;2022-07-11T00:51:26;22.70;93.70
35445;DHT22;21562;49.476;6.086;2022-07-11T00:53:57;22.70;93.70
35445;DHT22;21562;49.476;6.086;2022-07-11T00:56:25;22.60;93.70
35445;DHT22;21562;49.476;6.086;2022-07-11T00:58:52;22.70;93.90
35445;DHT22;21562;49.476;6.086;2022-07-11T01:01:20;22.70;93.70
35445;DHT22;21562;49.476;6.086;2022-07-11T01:03:46;22.80;93.80
35445;DHT22;21562;49.476;6.086;2022-07-11T01:06:12;22.70;93.70
35445;DHT22;21562;49.476;6.086;2022-07-11T01:08:38;22.70;94.00
35445;DHT22;21562;49.476;6.086;2022-07-11T01:11:07;22.70;94.00
35445;DHT22;21562;49.476;6.086;2022-07-11T01:13:36;22.70;94.00
35445;DHT22;21562;49.476;6.086;2022-07-11T01:16:15;22.70;94.00
35445;DHT22;21562;49.476;6.086;2022-07-11T01:18:46;22.60;94.00
35445;DHT22;21562;49.476;6.086;2022-07-11T01:23:47;22.70;94.30
35445;DHT22;21562;49.476;6.086;2022-07-11T01:26:15;22.70;94.20
35445;DHT22;21562;49.476;6.086;2022-07-11T01:28:41;22.50;94.30
35445;DHT22;21562;49.476;6.086;2022-07-11T01:31:07;22.30;94.30
35445;DHT22;21562;49.476;6.086;2022-07-11T01:33:32;22.00;95.20
35445;DHT22;21562;49.476;6.086;2022-07-11T01:36:00;22.10;95.30
35445;DHT22;21562;49.476;6.086;2022-07-11T01:38:29;22.20;94.90
35445;DHT22;21562;49.476;6.086;2022-07-11T01:40:55;22.30;94.70
35445;DHT22;21562;49.476;6.086;2022-07-11T01:43:21;22.20;95.10
35445;DHT22;21562;49.476;6.086;2022-07-11T01:45:54;21.90;95.30
35445;DHT22;21562;49.476;6.086;2022-07-11T01:48:20;21.80;95.30
35445;DHT22;21562;49.476;6.086;2022-07-11T01:50:47;21.80;95.20
35445;DHT22;21562;49.476;6.086;2022-07-11T01:53:13;21.80;95.50
35445;DHT22;21562;49.476;6.086;2022-07-11T01:55:40;21.90;95.40
35445;DHT22;21562;49.476;6.086;2022-07-11T01:58:05;21.80;95.40
35445;DHT22;21562;49.476;6.086;2022-07-11T02:00:31;21.70;95.40
35445;DHT22;21562;49.476;6.086;2022-07-11T02:02:57;21.80;95.70
35445;DHT22;21562;49.476;6.086;2022-07-11T02:05:22;21.70;95.70
35445;DHT22;21562;49.476;6.086;2022-07-11T02:07:48;21.20;96.10
35445;DHT22;21562;49.476;6.086;2022-07-11T02:10:32;20.60;97.30
35445;DHT22;21562;49.476;6.086;2022-07-11T02:12:59;20.30;98.40
35445;DHT22;21562;49.476;6.086;2022-07-11T02:15:26;19.80;99.60
35445;DHT22;21562;49.476;6.086;2022-07-11T02:17:51;19.60;99.90
35445;DHT22;21562;49.476;6.086;2022-07-11T02:20:18;19.60;99.90
35445;DHT22;21562;49.476;6.086;2022-07-11T02:22:44;19.80;99.90
35445;DHT22;21562;49.476;6.086;2022-07-11T02:25:10;19.90;99.90
35445;DHT22;21562;49.476;6.086;2022-07-11T02:27:36;19.90;99.90
35445;DHT22;21562;49.476;6.086;2022-07-11T02:30:02;19.70;99.90
35445;DHT22;21562;49.476;6.086;2022-07-11T02:32:28;19.50;99.90
35445;DHT22;21562;49.476;6.086;2022-07-11T02:34:53;19.50;99.90
35445;DHT22;21562;49.476;6.086;2022-07-11T02:37:19;19.40;99.90
35445;DHT22;21562;49.476;6.086;2022-07-11T02:39:45;18.70;99.90
35445;DHT22;21562;49.476;6.086;2022-07-11T02:42:11;18.30;99.90
35445;DHT22;21562;49.476;6.086;2022-07-11T02:44:37;18.40;99.90
35445;DHT22;21562;49.476;6.086;2022-07-11T02:47:03;18.00;99.90
35445;DHT22;21562;49.476;6.086;2022-07-11T02:49:29;17.80;99.90
35445;DHT22;21562;49.476;6.086;2022-07-11T02:51:58;17.80;99.90
35445;DHT22;21562;49.476;6.086;2022-07-11T02:54:24;17.70;99.90
35445;DHT22;21562;49.476;6.086;2022-07-11T02:56:50;18.00;99.90
35445;DHT22;21562;49.476;6.086;2022-07-11T02:59:16;18.20;99.90
35445;DHT22;21562;49.476;6.086;2022-07-11T03:01:42;18.40;99.90
35445;DHT22;21562;49.476;6.086;2022-07-11T03:04:08;18.20;99.90
35445;DHT22;21562;49.476;6.086;2022-07-11T03:06:34;18.10;99.90
35445;DHT22;21562;49.476;6.086;2022-07-11T03:09:00;18.20;99.90
35445;DHT22;21562;49.476;6.086;2022-07-11T03:11:26;17.80;99.90
35445;DHT22;21562;49.476;6.086;2022-07-11T03:13:51;18.00;99.90
35445;DHT22;21562;49.476;6.086;2022-07-11T03:16:17;18.10;99.90
35445;DHT22;21562;49.476;6.086;2022-07-11T03:18:43;18.20;99.90
35445;DHT22;21562;49.476;6.086;2022-07-11T03:21:09;18.20;99.90
35445;DHT22;21562;49.476;6.086;2022-07-11T03:23:34;17.80;99.90
35445;DHT22;21562;49.476;6.086;2022-07-11T03:26:00;17.60;99.90
35445;DHT22;21562;49.476;6.086;2022-07-11T03:28:26;17.50;99.90
35445;DHT22;21562;49.476;6.086;2022-07-11T03:30:52;17.60;99.90
35445;DHT22;21562;49.476;6.086;2022-07-11T03:33:18;17.70;99.90
35445;DHT22;21562;49.476;6.086;2022-07-11T03:35:43;17.60;99.90
35445;DHT22;21562;49.476;6.086;2022-07-11T03:38:10;17.50;99.90
35445;DHT22;21562;49.476;6.086;2022-07-11T03:40:37;17.30;99.90
35445;DHT22;21562;49.476;6.086;2022-07-11T03:43:03;17.50;99.90
35445;DHT22;21562;49.476;6.086;2022-07-11T03:45:29;17.90;99.90
35445;DHT22;21562;49.476;6.086;2022-07-11T03:47:55;17.90;99.90
35445;DHT22;21562;49.476;6.086;2022-07-11T03:50:20;18.30;99.90
35445;DHT22;21562;49.476;6.086;2022-07-11T03:52:47;18.10;99.90
35445;DHT22;21562;49.476;6.086;2022-07-11T03:55:13;18.10;99.90
35445;DHT22;21562;49.476;6.086;2022-07-11T03:57:38;18.00;99.90
35445;DHT22;21562;49.476;6.086;2022-07-11T04:00:05;17.50;99.90
35445;DHT22;21562;49.476;6.086;2022-07-11T04:02:32;17.30;99.90
35445;DHT22;21562;49.476;6.086;2022-07-11T04:04:58;17.20;99.90
35445;DHT22;21562;49.476;6.086;2022-07-11T04:07:24;17.40;99.90
35445;DHT22;21562;49.476;6.086;2022-07-11T04:09:49;17.10;99.90
35445;DHT22;21562;49.476;6.086;2022-07-11T04:12:15;16.90;99.90
35445;DHT22;21562;49.476;6.086;2022-07-11T04:14:43;16.80;99.90
35445;DHT22;21562;49.476;6.086;2022-07-11T04:17:09;17.00;99.90
35445;DHT22;21562;49.476;6.086;2022-07-11T04:19:35;17.30;99.90
35445;DHT22;21562;49.476;6.086;2022-07-11T04:22:01;17.70;99.90
35445;DHT22;21562;49.476;6.086;2022-07-11T04:24:27;18.10;99.90
35445;DHT22;21562;49.476;6.086;2022-07-11T04:26:52;18.30;99.90
35445;DHT22;21562;49.476;6.086;2022-07-11T04:29:18;18.00;99.90
35445;DHT22;21562;49.476;6.086;2022-07-11T04:31:44;17.60;99.90
35445;DHT22;21562;49.476;6.086;2022-07-11T04:34:09;17.50;99.90
35445;DHT22;21562;49.476;6.086;2022-07-11T04:36:35;17.50;99.90
35445;DHT22;21562;49.476;6.086;2022-07-11T04:39:01;17.70;99.90
35445;DHT22;21562;49.476;6.086;2022-07-11T04:41:26;17.60;99.90
35445;DHT22;21562;49.476;6.086;2022-07-11T04:43:52;17.40;99.90
35445;DHT22;21562;49.476;6.086;2022-07-11T04:46:18;17.20;99.90
35445;DHT22;21562;49.476;6.086;2022-07-11T04:48:43;17.50;99.90
35445;DHT22;21562;49.476;6.086;2022-07-11T04:51:09;17.80;99.90
35445;DHT22;21562;49.476;6.086;2022-07-11T04:53:35;18.20;99.90
35445;DHT22;21562;49.476;6.086;2022-07-11T04:56:01;18.50;99.90
35445;DHT22;21562;49.476;6.086;2022-07-11T04:58:27;18.70;99.90
35445;DHT22;21562;49.476;6.086;2022-07-11T05:00:52;19.00;99.90
35445;DHT22;21562;49.476;6.086;2022-07-11T05:03:19;19.00;99.90
35445;DHT22;21562;49.476;6.086;2022-07-11T05:05:46;19.10;99.90
35445;DHT22;21562;49.476;6.086;2022-07-11T05:08:11;19.10;99.90
35445;DHT22;21562;49.476;6.086;2022-07-11T05:10:37;19.20;99.90
35445;DHT22;21562;49.476;6.086;2022-07-11T05:13:03;19.30;99.90
35445;DHT22;21562;49.476;6.086;2022-07-11T05:15:30;19.50;99.90
35445;DHT22;21562;49.476;6.086;2022-07-11T05:17:56;19.70;99.90
35445;DHT22;21562;49.476;6.086;2022-07-11T05:20:22;19.80;99.90
35445;DHT22;21562;49.476;6.086;2022-07-11T05:22:48;19.90;99.90
35445;DHT22;21562;49.476;6.086;2022-07-11T05:25:14;19.90;99.90
35445;DHT22;21562;49.476;6.086;2022-07-11T05:27:39;20.10;99.90
35445;DHT22;21562;49.476;6.086;2022-07-11T05:30:06;20.10;99.90
35445;DHT22;21562;49.476;6.086;2022-07-11T05:32:33;20.20;99.90
35445;DHT22;21562;49.476;6.086;2022-07-11T05:34:58;20.30;99.90
35445;DHT22;21562;49.476;6.086;2022-07-11T05:37:26;20.40;99.90
35445;DHT22;21562;49.476;6.086;2022-07-11T05:39:51;20.40;99.90
35445;DHT22;21562;49.476;6.086;2022-07-11T05:42:17;20.50;99.90
35445;DHT22;21562;49.476;6.086;2022-07-11T05:44:43;20.50;99.90
35445;DHT22;21562;49.476;6.086;2022-07-11T05:47:08;20.60;99.90
35445;DHT22;21562;49.476;6.086;2022-07-11T05:49:34;20.70;99.90
35445;DHT22;21562;49.476;6.086;2022-07-11T05:52:00;20.70;99.90
35445;DHT22;21562;49.476;6.086;2022-07-11T05:54:27;20.80;99.90
35445;DHT22;21562;49.476;6.086;2022-07-11T05:56:54;20.80;99.90
35445;DHT22;21562;49.476;6.086;2022-07-11T05:59:21;20.70;99.90
35445;DHT22;21562;49.476;6.086;2022-07-11T06:01:47;20.70;99.90
35445;DHT22;21562;49.476;6.086;2022-07-11T06:04:13;20.70;99.90
35445;DHT22;21562;49.476;6.086;2022-07-11T06:06:39;20.80;99.90
35445;DHT22;21562;49.476;6.086;2022-07-11T06:09:05;20.90;99.90
35445;DHT22;21562;49.476;6.086;2022-07-11T06:11:31;21.00;99.90
35445;DHT22;21562;49.476;6.086;2022-07-11T06:13:57;21.00;99.90
35445;DHT22;21562;49.476;6.086;2022-07-11T06:16:23;21.10;99.90
35445;DHT22;21562;49.476;6.086;2022-07-11T06:18:48;21.10;99.90
35445;DHT22;21562;49.476;6.086;2022-07-11T06:21:14;21.10;99.90
35445;DHT22;21562;49.476;6.086;2022-07-11T06:23:40;21.10;99.90
35445;DHT22;21562;49.476;6.086;2022-07-11T06:26:08;21.20;99.90
35445;DHT22;21562;49.476;6.086;2022-07-11T06:28:34;21.00;99.90
35445;DHT22;21562;49.476;6.086;2022-07-11T06:31:00;20.90;99.90
35445;DHT22;21562;49.476;6.086;2022-07-11T06:33:27;21.00;99.90
35445;DHT22;21562;49.476;6.086;2022-07-11T06:35:53;20.90;99.90
35445;DHT22;21562;49.476;6.086;2022-07-11T06:38:18;20.90;99.90
35445;DHT22;21562;49.476;6.086;2022-07-11T06:40:44;20.90;99.90
35445;DHT22;21562;49.476;6.086;2022-07-11T06:43:11;21.00;99.90
35445;DHT22;21562;49.476;6.086;2022-07-11T06:45:37;20.80;99.90
35445;DHT22;21562;49.476;6.086;2022-07-11T06:48:04;20.60;99.90
35445;DHT22;21562;49.476;6.086;2022-07-11T06:50:30;20.60;99.90
35445;DHT22;21562;49.476;6.086;2022-07-11T06:52:56;20.80;99.90
35445;DHT22;21562;49.476;6.086;2022-07-11T06:55:22;21.00;99.90
35445;DHT22;21562;49.476;6.086;2022-07-11T06:57:48;21.00;99.90
35445;DHT22;21562;49.476;6.086;2022-07-11T07:00:15;21.10;99.90
35445;DHT22;21562;49.476;6.086;2022-07-11T07:02:41;21.30;99.90
35445;DHT22;21562;49.476;6.086;2022-07-11T07:05:08;21.50;99.90
35445;DHT22;21562;49.476;6.086;2022-07-11T07:07:34;21.60;99.90
35445;DHT22;21562;49.476;6.086;2022-07-11T07:10:00;21.90;99.90
35445;DHT22;21562;49.476;6.086;2022-07-11T07:12:26;22.00;99.90
35445;DHT22;21562;49.476;6.086;2022-07-11T07:14:53;21.90;99.90
35445;DHT22;21562;49.476;6.086;2022-07-11T07:17:19;22.10;99.90
35445;DHT22;21562;49.476;6.086;2022-07-11T07:19:45;21.80;99.90
35445;DHT22;21562;49.476;6.086;2022-07-11T07:22:11;21.80;99.90
35445;DHT22;21562;49.476;6.086;2022-07-11T07:24:41;21.70;99.90
35445;DHT22;21562;49.476;6.086;2022-07-11T07:27:07;21.70;99.90
35445;DHT22;21562;49.476;6.086;2022-07-11T07:29:33;21.50;99.90
35445;DHT22;21562;49.476;6.086;2022-07-11T07:31:58;21.50;99.90
35445;DHT22;21562;49.476;6.086;2022-07-11T07:34:27;21.70;99.90
35445;DHT22;21562;49.476;6.086;2022-07-11T07:36:53;22.00;99.90
35445;DHT22;21562;49.476;6.086;2022-07-11T07:39:19;22.20;99.90
35445;DHT22;21562;49.476;6.086;2022-07-11T07:41:45;22.50;99.90
35445;DHT22;21562;49.476;6.086;2022-07-11T07:44:10;22.40;99.90
35445;DHT22;21562;49.476;6.086;2022-07-11T07:46:36;22.20;99.90
35445;DHT22;21562;49.476;6.086;2022-07-11T07:49:02;22.20;99.90
35445;DHT22;21562;49.476;6.086;2022-07-11T07:51:28;22.30;99.90
35445;DHT22;21562;49.476;6.086;2022-07-11T07:53:54;22.60;99.90
35445;DHT22;21562;49.476;6.086;2022-07-11T07:56:20;22.80;99.90
35445;DHT22;21562;49.476;6.086;2022-07-11T07:58:46;23.00;99.80
35445;DHT22;21562;49.476;6.086;2022-07-11T08:01:11;23.20;99.00
35445;DHT22;21562;49.476;6.086;2022-07-11T08:03:56;23.00;99.00
35445;DHT22;21562;49.476;6.086;2022-07-11T08:06:22;22.80;99.10
35445;DHT22;21562;49.476;6.086;2022-07-11T08:08:48;22.90;99.00
35445;DHT22;21562;49.476;6.086;2022-07-11T08:11:15;22.90;98.90
35445;DHT22;21562;49.476;6.086;2022-07-11T08:13:41;22.80;98.60
35445;DHT22;21562;49.476;6.086;2022-07-11T08:16:07;22.60;99.10
35445;DHT22;21562;49.476;6.086;2022-07-11T08:18:33;22.70;99.30
35445;DHT22;21562;49.476;6.086;2022-07-11T08:20:59;22.90;98.20
35445;DHT22;21562;49.476;6.086;2022-07-11T08:23:25;23.10;98.40
35445;DHT22;21562;49.476;6.086;2022-07-11T08:25:51;23.20;98.30
35445;DHT22;21562;49.476;6.086;2022-07-11T08:28:18;23.40;98.00
35445;DHT22;21562;49.476;6.086;2022-07-11T08:30:44;23.50;98.10
35445;DHT22;21562;49.476;6.086;2022-07-11T08:33:11;23.50;97.70
35445;DHT22;21562;49.476;6.086;2022-07-11T08:35:36;23.70;97.70
35445;DHT22;21562;49.476;6.086;2022-07-11T08:38:02;23.80;97.10
35445;DHT22;21562;49.476;6.086;2022-07-11T08:40:28;24.00;97.40
35445;DHT22;21562;49.476;6.086;2022-07-11T08:42:56;23.80;97.10
35445;DHT22;21562;49.476;6.086;2022-07-11T08:45:25;23.80;97.20
35445;DHT22;21562;49.476;6.086;2022-07-11T08:47:54;24.00;97.10
35445;DHT22;21562;49.476;6.086;2022-07-11T08:50:20;24.30;97.10
35445;DHT22;21562;49.476;6.086;2022-07-11T08:52:48;24.50;96.50
35445;DHT22;21562;49.476;6.086;2022-07-11T08:55:13;24.50;96.90
35445;DHT22;21562;49.476;6.086;2022-07-11T08:57:39;24.70;96.40
35445;DHT22;21562;49.476;6.086;2022-07-11T09:00:07;24.40;96.20
35445;DHT22;21562;49.476;6.086;2022-07-11T09:02:35;24.40;96.40
35445;DHT22;21562;49.476;6.086;2022-07-11T09:05:04;24.20;96.10
35445;DHT22;21562;49.476;6.086;2022-07-11T09:07:34;24.10;96.30
35445;DHT22;21562;49.476;6.086;2022-07-11T09:10:00;24.10;96.70
35445;DHT22;21562;49.476;6.086;2022-07-11T09:12:26;24.40;96.90
35445;DHT22;21562;49.476;6.086;2022-07-11T09:14:52;24.40;95.90
35445;DHT22;21562;49.476;6.086;2022-07-11T09:17:25;24.40;96.40
35445;DHT22;21562;49.476;6.086;2022-07-11T09:19:55;24.40;96.80
35445;DHT22;21562;49.476;6.086;2022-07-11T09:22:21;24.50;96.50
35445;DHT22;21562;49.476;6.086;2022-07-11T09:25:11;24.80;96.00
35445;DHT22;21562;49.476;6.086;2022-07-11T09:27:58;25.20;95.80
35445;DHT22;21562;49.476;6.086;2022-07-11T09:30:33;25.50;95.00
35445;DHT22;21562;49.476;6.086;2022-07-11T09:33:09;25.60;95.00
35445;DHT22;21562;49.476;6.086;2022-07-11T09:35:43;25.40;94.70
35445;DHT22;21562;49.476;6.086;2022-07-11T09:38:12;25.10;95.40
35445;DHT22;21562;49.476;6.086;2022-07-11T09:40:38;24.80;95.40
35445;DHT22;21562;49.476;6.086;2022-07-11T09:43:07;24.40;95.70
35445;DHT22;21562;49.476;6.086;2022-07-11T09:45:33;24.60;95.70
35445;DHT22;21562;49.476;6.086;2022-07-11T09:48:08;25.00;95.90
35445;DHT22;21562;49.476;6.086;2022-07-11T09:50:34;25.30;95.10
35445;DHT22;21562;49.476;6.086;2022-07-11T09:53:09;25.50;94.80
35445;DHT22;21562;49.476;6.086;2022-07-11T09:55:37;25.70;94.70
35445;DHT22;21562;49.476;6.086;2022-07-11T09:58:11;25.20;95.10
35445;DHT22;21562;49.476;6.086;2022-07-11T10:00:38;25.40;95.30
35445;DHT22;21562;49.476;6.086;2022-07-11T10:03:09;25.50;95.30
35445;DHT22;21562;49.476;6.086;2022-07-11T10:05:35;25.50;95.10
35445;DHT22;21562;49.476;6.086;2022-07-11T10:08:02;25.80;95.00
35445;DHT22;21562;49.476;6.086;2022-07-11T10:10:30;26.00;94.10
35445;DHT22;21562;49.476;6.086;2022-07-11T10:12:57;26.10;94.40
35445;DHT22;21562;49.476;6.086;2022-07-11T10:15:34;26.20;94.70
35445;DHT22;21562;49.476;6.086;2022-07-11T10:20:58;26.00;94.80
35445;DHT22;21562;49.476;6.086;2022-07-11T10:23:36;26.40;93.70
35445;DHT22;21562;49.476;6.086;2022-07-11T10:26:24;26.60;94.00
35445;DHT22;21562;49.476;6.086;2022-07-11T10:31:25;27.10;93.40
35445;DHT22;21562;49.476;6.086;2022-07-11T10:34:26;26.80;93.00
35445;DHT22;21562;49.476;6.086;2022-07-11T10:36:52;26.50;93.60
35445;DHT22;21562;49.476;6.086;2022-07-11T10:39:22;26.80;93.90
35445;DHT22;21562;49.476;6.086;2022-07-11T10:41:51;27.20;93.50
35445;DHT22;21562;49.476;6.086;2022-07-11T10:44:17;27.40;92.70
35445;DHT22;21562;49.476;6.086;2022-07-11T10:46:43;27.60;92.80
35445;DHT22;21562;49.476;6.086;2022-07-11T10:54:42;27.90;91.80
35445;DHT22;21562;49.476;6.086;2022-07-11T10:57:40;27.80;92.00
35445;DHT22;21562;49.476;6.086;2022-07-11T11:00:11;27.90;91.90
35445;DHT22;21562;49.476;6.086;2022-07-11T11:03:06;27.50;91.60
35445;DHT22;21562;49.476;6.086;2022-07-11T11:14:17;27.60;92.10
35445;DHT22;21562;49.476;6.086;2022-07-11T11:16:44;27.50;91.80
35445;DHT22;21562;49.476;6.086;2022-07-11T11:22:17;27.70;92.20
35445;DHT22;21562;49.476;6.086;2022-07-11T11:24:44;27.90;91.90
35445;DHT22;21562;49.476;6.086;2022-07-11T11:27:36;28.10;91.80
35445;DHT22;21562;49.476;6.086;2022-07-11T11:30:05;27.90;91.50
35445;DHT22;21562;49.476;6.086;2022-07-11T11:32:31;27.80;91.30
35445;DHT22;21562;49.476;6.086;2022-07-11T11:34:57;27.50;92.20
35445;DHT22;21562;49.476;6.086;2022-07-11T11:37:24;27.50;92.30
35445;DHT22;21562;49.476;6.086;2022-07-11T11:39:57;27.40;91.70
35445;DHT22;21562;49.476;6.086;2022-07-11T11:42:24;27.20;91.90
35445;DHT22;21562;49.476;6.086;2022-07-11T11:45:03;26.80;92.30
35445;DHT22;21562;49.476;6.086;2022-07-11T11:47:30;26.80;92.20
35445;DHT22;21562;49.476;6.086;2022-07-11T11:49:56;27.00;92.40
35445;DHT22;21562;49.476;6.086;2022-07-11T11:52:22;27.40;92.10
35445;DHT22;21562;49.476;6.086;2022-07-11T11:54:57;27.80;91.90
35445;DHT22;21562;49.476;6.086;2022-07-11T11:57:24;28.20;91.20
35445;DHT22;21562;49.476;6.086;2022-07-11T11:59:50;28.50;90.90
35445;DHT22;21562;49.476;6.086;2022-07-11T12:02:24;28.80;90.60
35445;DHT22;21562;49.476;6.086;2022-07-11T12:04:50;28.90;90.60
35445;DHT22;21562;49.476;6.086;2022-07-11T12:07:22;28.90;90.30
35445;DHT22;21562;49.476;6.086;2022-07-11T12:09:52;29.10;90.50
35445;DHT22;21562;49.476;6.086;2022-07-11T12:12:23;29.30;90.00
35445;DHT22;21562;49.476;6.086;2022-07-11T12:15:23;28.60;90.30
35445;DHT22;21562;49.476;6.086;2022-07-11T12:17:52;28.60;90.80
35445;DHT22;21562;49.476;6.086;2022-07-11T12:20:38;28.70;90.80
35445;DHT22;21562;49.476;6.086;2022-07-11T12:23:06;28.70;90.60
35445;DHT22;21562;49.476;6.086;2022-07-11T12:25:33;28.70;90.90
35445;DHT22;21562;49.476;6.086;2022-07-11T12:27:59;28.60;91.20
35445;DHT22;21562;49.476;6.086;2022-07-11T12:30:25;28.60;90.60
35445;DHT22;21562;49.476;6.086;2022-07-11T12:33:05;28.60;90.20
35445;DHT22;21562;49.476;6.086;2022-07-11T12:35:31;28.70;90.10
35445;DHT22;21562;49.476;6.086;2022-07-11T12:37:57;29.00;90.30
35445;DHT22;21562;49.476;6.086;2022-07-11T12:40:22;29.30;89.20
35445;DHT22;21562;49.476;6.086;2022-07-11T12:42:48;29.30;89.00
35445;DHT22;21562;49.476;6.086;2022-07-11T12:45:14;29.10;88.20
35445;DHT22;21562;49.476;6.086;2022-07-11T12:47:44;28.80;88.60
35445;DHT22;21562;49.476;6.086;2022-07-11T12:50:18;28.80;89.40
35445;DHT22;21562;49.476;6.086;2022-07-11T12:52:46;28.90;89.40
35445;DHT22;21562;49.476;6.086;2022-07-11T12:58:09;29.70;87.50
35445;DHT22;21562;49.476;6.086;2022-07-11T13:00:55;29.00;87.30
35445;DHT22;21562;49.476;6.086;2022-07-11T13:03:48;28.80;87.90
35445;DHT22;21562;49.476;6.086;2022-07-11T13:06:15;28.50;89.70
35445;DHT22;21562;49.476;6.086;2022-07-11T13:08:41;29.00;88.40
35445;DHT22;21562;49.476;6.086;2022-07-11T13:13:41;28.60;89.30
35445;DHT22;21562;49.476;6.086;2022-07-11T13:16:07;29.00;88.00
35445;DHT22;21562;49.476;6.086;2022-07-11T13:18:33;29.40;87.70
35445;DHT22;21562;49.476;6.086;2022-07-11T13:20:59;29.50;86.80
35445;DHT22;21562;49.476;6.086;2022-07-11T13:23:26;28.20;87.70
35445;DHT22;21562;49.476;6.086;2022-07-11T13:25:53;28.00;89.40
35445;DHT22;21562;49.476;6.086;2022-07-11T13:28:18;28.80;88.90
35445;DHT22;21562;49.476;6.086;2022-07-11T13:30:44;29.20;88.60
35445;DHT22;21562;49.476;6.086;2022-07-11T13:33:10;29.30;87.80
35445;DHT22;21562;49.476;6.086;2022-07-11T13:35:36;29.10;87.80
35445;DHT22;21562;49.476;6.086;2022-07-11T13:38:02;29.10;87.40
35445;DHT22;21562;49.476;6.086;2022-07-11T13:40:28;29.50;88.20
35445;DHT22;21562;49.476;6.086;2022-07-11T13:42:54;29.60;85.00
35445;DHT22;21562;49.476;6.086;2022-07-11T13:45:23;29.40;85.70
35445;DHT22;21562;49.476;6.086;2022-07-11T13:47:49;29.90;86.20
35445;DHT22;21562;49.476;6.086;2022-07-11T13:50:16;30.00;85.90
35445;DHT22;21562;49.476;6.086;2022-07-11T13:52:42;30.10;85.30
35445;DHT22;21562;49.476;6.086;2022-07-11T13:55:12;30.10;86.40
35445;DHT22;21562;49.476;6.086;2022-07-11T13:57:38;30.00;86.60
35445;DHT22;21562;49.476;6.086;2022-07-11T14:00:04;30.10;85.80
35445;DHT22;21562;49.476;6.086;2022-07-11T14:02:31;30.00;86.90
35445;DHT22;21562;49.476;6.086;2022-07-11T14:04:57;30.40;86.20
35445;DHT22;21562;49.476;6.086;2022-07-11T14:07:23;30.50;85.00
35445;DHT22;21562;49.476;6.086;2022-07-11T14:09:49;30.30;84.40
35445;DHT22;21562;49.476;6.086;2022-07-11T14:12:16;29.90;85.00
35445;DHT22;21562;49.476;6.086;2022-07-11T14:14:42;29.90;85.20
35445;DHT22;21562;49.476;6.086;2022-07-11T14:17:08;30.00;84.30
35445;DHT22;21562;49.476;6.086;2022-07-11T14:19:33;30.20;84.90
35445;DHT22;21562;49.476;6.086;2022-07-11T14:22:03;30.60;83.50
35445;DHT22;21562;49.476;6.086;2022-07-11T14:24:33;31.10;82.50
35445;DHT22;21562;49.476;6.086;2022-07-11T14:26:59;31.30;82.20
35445;DHT22;21562;49.476;6.086;2022-07-11T14:29:25;31.30;81.90
35445;DHT22;21562;49.476;6.086;2022-07-11T14:31:52;30.90;81.80
35445;DHT22;21562;49.476;6.086;2022-07-11T14:34:20;30.50;82.50
35445;DHT22;21562;49.476;6.086;2022-07-11T14:36:46;30.40;83.10
35445;DHT22;21562;49.476;6.086;2022-07-11T14:39:13;30.00;83.20
35445;DHT22;21562;49.476;6.086;2022-07-11T14:41:39;30.20;83.90
35445;DHT22;21562;49.476;6.086;2022-07-11T14:44:05;29.20;83.80
35445;DHT22;21562;49.476;6.086;2022-07-11T14:46:30;29.20;84.50
35445;DHT22;21562;49.476;6.086;2022-07-11T14:48:56;29.70;85.00
35445;DHT22;21562;49.476;6.086;2022-07-11T14:51:22;30.00;83.20
35445;DHT22;21562;49.476;6.086;2022-07-11T14:53:47;30.10;83.60
35445;DHT22;21562;49.476;6.086;2022-07-11T14:56:13;30.40;82.10
35445;DHT22;21562;49.476;6.086;2022-07-11T14:58:39;30.40;81.70
35445;DHT22;21562;49.476;6.086;2022-07-11T15:01:06;30.30;82.90
35445;DHT22;21562;49.476;6.086;2022-07-11T15:03:32;30.40;82.70
35445;DHT22;21562;49.476;6.086;2022-07-11T15:06:09;30.50;82.60
35445;DHT22;21562;49.476;6.086;2022-07-11T15:08:35;30.40;82.40
35445;DHT22;21562;49.476;6.086;2022-07-11T15:11:20;30.00;82.90
35445;DHT22;21562;49.476;6.086;2022-07-11T15:14:05;30.20;83.40
35445;DHT22;21562;49.476;6.086;2022-07-11T15:16:32;30.50;82.40
35445;DHT22;21562;49.476;6.086;2022-07-11T15:18:59;30.50;82.20
35445;DHT22;21562;49.476;6.086;2022-07-11T15:21:25;30.70;81.30
35445;DHT22;21562;49.476;6.086;2022-07-11T15:23:51;30.80;81.50
35445;DHT22;21562;49.476;6.086;2022-07-11T15:26:17;31.00;81.10
35445;DHT22;21562;49.476;6.086;2022-07-11T15:28:43;30.90;80.40
35445;DHT22;21562;49.476;6.086;2022-07-11T15:31:10;30.50;80.80
35445;DHT22;21562;49.476;6.086;2022-07-11T15:33:38;30.20;81.20
35445;DHT22;21562;49.476;6.086;2022-07-11T15:36:04;30.10;81.20
35445;DHT22;21562;49.476;6.086;2022-07-11T15:38:30;30.00;81.30
35445;DHT22;21562;49.476;6.086;2022-07-11T15:40:56;30.10;81.60
35445;DHT22;21562;49.476;6.086;2022-07-11T15:43:21;30.40;81.90
35445;DHT22;21562;49.476;6.086;2022-07-11T15:45:47;30.50;82.60
35445;DHT22;21562;49.476;6.086;2022-07-11T15:48:13;30.40;81.70
35445;DHT22;21562;49.476;6.086;2022-07-11T15:50:39;30.50;81.70
35445;DHT22;21562;49.476;6.086;2022-07-11T15:53:06;30.50;81.40
35445;DHT22;21562;49.476;6.086;2022-07-11T15:55:32;30.20;81.30
35445;DHT22;21562;49.476;6.086;2022-07-11T15:57:57;30.30;81.30
35445;DHT22;21562;49.476;6.086;2022-07-11T16:00:23;30.30;81.30
35445;DHT22;21562;49.476;6.086;2022-07-11T16:02:50;30.10;80.80